Nearby METAR Reports

 

YMML - Melbourne Intl A, Australia
Distance from station: SSW 13km
Updated: Tue, 19-Feb-2019 6:00am AEDT
Partly Cloudy
Partly Cloudy
 Wind from WSW
Wind: WSW 17 km/h
Temperature: 12°C
Dew Point: 8°C
Humidity: 77%
Barometer: 1011 hPa
Clouds: Partly Cloudy
Visibility: 10 km
Cloud details: Few Clouds 1433 m
Partly Cloudy 1615 m
2019/02/18 19:00 YMML 181900Z 25009KT 9999 FEW047 SCT053 12/08 Q1011
YMEN - Melbourne/Essend, Australia
Distance from station: S 16km
Updated: Tue, 19-Feb-2019 6:00am AEDT
Mostly Cloudy
Mostly Cloudy
 Wind from WSW
Wind: WSW 13 km/h
Temperature: 13°C
Dew Point: 9°C
Humidity: 77%
Barometer: 1011 hPa
Clouds: Mostly Cloudy
Visibility: 10 km
Cloud details: Mostly Cloudy 1676 m
2019/02/18 19:00 YMEN 181900Z AUTO 25007KT 9999 // BKN055 13/09 Q1011
 
YMAV - Avalon Airport, Australia
Distance from station: SW 63km
Updated: Tue, 19-Feb-2019 6:00am AEDT
Overcast
Overcast
 Wind from W
Wind: W 15 km/h
Temperature: 14°C
Dew Point: 10°C
Humidity: 77%
Barometer: 1011 hPa
Clouds: Overcast
Visibility: 10 km
Cloud details: Overcast 1676 m
2019/02/18 19:00 YMAV 181900Z AUTO 28008KT 9999 // OVC055 14/10 Q1011

Metar display script from Saratoga-Weather.org